This is the latest recevied weather packets stored in our database for station/object W6ORV. If no packets are shown the sender has not sent any weather packets the latest 1 day(s).
| Time | Temp. | Humidity | Pressure | Rain* | Wind** | Luminosity | Snow |
|---|---|---|---|---|---|---|---|
| 1778020734 | 21.11° C | 44% | 4299.3 hPa | 0 mm | 0.45 m/s, 308° | 545 W/m² | - |
| 1778020431 | 20.56° C | 47% | 4299.4 hPa | 0 mm | 1.34 m/s, 296° | 576 W/m² | - |
| 1778020127 | 21.11° C | 45% | 4299.4 hPa | 0 mm | 1.79 m/s, 280° | 799 W/m² | - |
| 1778019824 | 20.56° C | 46% | 4299.6 hPa | 0 mm | 0 m/s | 851 W/m² | - |
| 1778019521 | 20.56° C | 45% | 4299.5 hPa | 0 mm | 1.34 m/s, 279° | 839 W/m² | - |
| 1778019217 | 20.56° C | 46% | 4299.8 hPa | 0 mm | 0.45 m/s, 221° | 668 W/m² | - |
| 1778018915 | 21.11° C | 46% | 4299.6 hPa | 0 mm | 3.13 m/s, 321° | 599 W/m² | - |
| 1778018611 | 19.44° C | 49% | 4299.7 hPa | 0 mm | 0 m/s | 655 W/m² | - |
| 1778018310 | 18.89° C | 51% | 4299.8 hPa | 0 mm | 1.79 m/s, 232° | 678 W/m² | - |
| 1778018007 | 19.44° C | 49% | 4299.8 hPa | 0 mm | 0.89 m/s, 227° | 470 W/m² | - |
| 1778017705 | 20° C | 48% | 4300 hPa | 0 mm | 2.68 m/s, 295° | 766 W/m² | - |
| 1778017402 | 20° C | 49% | 4299.6 hPa | 0 mm | 1.34 m/s, 303° | 452 W/m² | - |
| 1778017099 | 20.56° C | 48% | 4300 hPa | 0 mm | 0.89 m/s, 294° | 442 W/m² | - |
| 1778016797 | 20° C | 49% | 4300 hPa | 0 mm | 0 m/s | 468 W/m² | - |
| 1778016493 | 20.56° C | 49% | 4300 hPa | 0 mm | 1.34 m/s, 315° | 465 W/m² | - |
| 1778016190 | 19.44° C | 50% | 4300 hPa | 0 mm | 0.89 m/s, 303° | 491 W/m² | - |
| 1778015886 | 19.44° C | 50% | 4300.1 hPa | 0 mm | 1.79 m/s, 351° | 521 W/m² | - |
| 1778015584 | 19.44° C | 50% | 4300.2 hPa | 0 mm | 4.02 m/s, 323° | 445 W/m² | - |
| 1778015280 | 19.44° C | 51% | 4299.9 hPa | 0 mm | 0.45 m/s, 330° | 482 W/m² | - |
| 1778014977 | 20° C | 49% | 4300.2 hPa | 0 mm | 3.13 m/s, 311° | 525 W/m² | - |
| 1778014674 | 19.44° C | 52% | 4300.1 hPa | 0 mm | 0 m/s | 545 W/m² | - |
| 1778014373 | 18.89° C | 51% | 4300.2 hPa | 0 mm | 2.68 m/s, 311° | 651 W/m² | - |
| 1778014069 | 18.89° C | 52% | 4300.2 hPa | 0 mm | 2.24 m/s, 271° | 369 W/m² | - |
| 1778013767 | 18.33° C | 54% | 4300.3 hPa | 0 mm | 0 m/s | 506 W/m² | - |
| 1778013463 | 18.33° C | 55% | 4300.1 hPa | 0 mm | 1.34 m/s, 282° | 343 W/m² | - |
* Rain latest hour (hover to see other rain measurements)
** Current wind speed in m/s (hover to see current wind gust speed)